Time;durP1;ratioP1;P1;durP2;ratioP2;P2;SDS_P1;SDS_P2;PMS_P1;PMS_P2;Temp;Humidity;BMP_temperature;BMP_pressure;BME280_temperature;BME280_humidity;BME280_pressure;Samples;Min_cycle;Max_cycle;Signal;HPM_P1;HPM_P2
2021/09/25 00:00:11;;;;;;;;;;;;;;;13.50;73.94;97063.03;30001;973;1885;-65
2021/09/25 00:00:42;;;;;;;;;;;;;;;13.50;73.99;97055.66;30001;983;1876;-64
2021/09/25 00:01:13;;;;;;;;;;;;;;;13.50;73.81;97057.59;30001;983;1880;-64
2021/09/25 00:01:44;;;;;;;;;;;;;;;13.51;74.07;97061.91;30001;983;1875;-62
2021/09/25 00:02:15;;;;;;;;;;;;;;;13.50;73.81;97057.59;30001;983;1880;-63
2021/09/25 00:02:45;;;;;;;;;;;;;;;13.51;73.74;97059.19;30001;983;1876;-64
2021/09/25 00:03:16;;;;;;;;;;;;;;;13.51;73.83;97065.44;30001;983;1858;-64
2021/09/25 00:03:47;;;;;;;;;;;;;;;13.51;73.88;97057.28;30001;983;1768;-63
2021/09/25 00:04:18;;;;;;;;;;;;;;;13.51;73.62;97053.75;30001;982;1880;-62
2021/09/25 00:04:49;;;;;;;;;;;;;;;13.52;73.77;97058.03;30001;982;1876;-64
2021/09/25 00:05:19;;;;;;;;;;;;;;;13.51;73.66;97056.47;30001;982;1880;-63
2021/09/25 00:05:50;;;;;;;;;;;;;;;13.51;73.74;97064.66;30001;982;1876;-63
2021/09/25 00:06:21;;;;;;;;;;;;;;;13.51;73.50;97053.75;30001;982;1880;-64
2021/09/25 00:06:52;;;;;;;;;;;;;;;13.51;73.87;97053.75;30001;982;1876;-63
2021/09/25 00:07:23;;;;;;;;;;;;;;;13.51;73.55;97053.75;30001;983;1880;-65
2021/09/25 00:07:54;;;;;;;;;;;;;;;13.52;73.74;97055.31;30001;985;1853;-63
2021/09/25 00:08:25;;;;;;;;;;;;;;;13.51;73.36;97059.19;30001;983;1876;-64
2021/09/25 00:08:57;;;;;;;;;;;;;;;13.51;73.69;97051.81;30001;983;1876;-64
2021/09/25 00:09:28;;;;;;;;;;;;;;;13.51;73.70;97051.00;30001;983;1880;-64
2021/09/25 00:09:59;;;;;;;;;;;;;;;13.50;73.65;97052.94;30001;983;1876;-63
2021/09/25 00:10:30;;;;;;;;;;;;;;;13.51;73.43;97051.00;30001;983;1786;-63
2021/09/25 00:11:01;;;;;;;;;;;;;;;13.51;73.63;97051.00;30001;983;1876;-63
2021/09/25 00:11:32;;;;;;;;;;;;;;;13.51;73.57;97051.00;30001;982;1859;-63
2021/09/25 00:12:03;;;;;;;;;;;;;;;13.52;73.58;97055.31;30001;974;1879;-63
2021/09/25 00:12:34;;;;;;;;;;;;;;;13.51;73.54;97048.28;30001;982;1880;-65
2021/09/25 00:13:05;;;;;;;;;;;;;;;13.50;73.61;97050.22;30001;982;1876;-65
2021/09/25 00:13:36;;;;;;;;;;;;;;;13.51;73.47;97048.28;30001;982;1859;-64
2021/09/25 00:14:07;;;;;;;;;;;;;;;13.50;73.40;97047.47;30001;982;1872;-64
2021/09/25 00:14:39;;;;;;;;;;;;;;;13.50;73.65;97052.13;30001;982;1880;-64
2021/09/25 00:15:10;;;;;;;;;;;;;;;13.48;73.51;97048.91;30001;983;1875;-65
2021/09/25 00:15:41;;;;;;;;;;;;;;;13.48;73.48;97049.72;30001;983;1858;-63
2021/09/25 00:16:12;;;;;;;;;;;;;;;13.48;73.83;97055.16;30001;983;1871;-64
2021/09/25 00:16:43;;;;;;;;;;;;;;;13.47;73.74;97047.28;30001;983;1880;-65
2021/09/25 00:17:14;;;;;;;;;;;;;;;13.47;73.91;97050.00;30001;983;1875;-63
2021/09/25 00:17:46;;;;;;;;;;;;;;;13.47;73.48;97047.28;30001;983;1880;-62
2021/09/25 00:18:17;;;;;;;;;;;;;;;13.48;73.43;97057.06;30001;983;1876;-63
2021/09/25 00:18:47;;;;;;;;;;;;;;;13.46;73.51;97054.66;30001;983;1880;-64
2021/09/25 00:19:18;;;;;;;;;;;;;;;13.47;73.52;97052.75;30001;982;1876;-64
2021/09/25 00:19:49;;;;;;;;;;;;;;;13.46;73.35;97051.94;30001;982;1858;-64
2021/09/25 00:20:20;;;;;;;;;;;;;;;13.46;73.47;97053.84;30001;982;1872;-63
2021/09/25 00:20:51;;;;;;;;;;;;;;;13.46;73.70;97056.56;30001;982;1803;-64
2021/09/25 00:21:22;;;;;;;;;;;;;;;13.45;73.62;97050.31;30001;982;1876;-64
2021/09/25 00:21:53;;;;;;;;;;;;;;;13.46;73.32;97053.84;30001;982;1859;-63
2021/09/25 00:22:24;;;;;;;;;;;;;;;13.46;73.61;97048.41;30001;983;1871;-64
2021/09/25 00:22:55;;;;;;;;;;;;;;;13.45;73.32;97052.25;30001;983;1880;-64
2021/09/25 00:23:26;;;;;;;;;;;;;;;13.44;73.68;97047.91;30001;968;1890;-65
2021/09/25 00:23:57;;;;;;;;;;;;;;;13.43;73.62;97054.47;30001;983;1880;-64
2021/09/25 00:24:28;;;;;;;;;;;;;;;13.43;73.27;97055.28;30001;983;1854;-64
2021/09/25 00:25:01;;;;;;;;;;;;;;;13.43;73.22;97046.28;30001;983;1876;-62
2021/09/25 00:25:32;;;;;;;;;;;;;;;13.44;73.47;97045.19;30001;983;1876;-63
2021/09/25 00:26:03;;;;;;;;;;;;;;;13.44;73.42;97047.91;30001;983;1880;-64
2021/09/25 00:26:33;;;;;;;;;;;;;;;13.45;73.39;97054.97;30001;982;1876;-65
2021/09/25 00:27:04;;;;;;;;;;;;;;;13.44;73.03;97053.34;30001;982;1880;-65
2021/09/25 00:27:36;;;;;;;;;;;;;;;13.44;73.17;97053.34;30001;982;1876;-64
2021/09/25 00:28:07;;;;;;;;;;;;;;;13.43;73.42;97052.53;30001;982;1880;-64
2021/09/25 00:28:38;;;;;;;;;;;;;;;13.45;73.14;97060.41;30001;982;1876;-65
2021/09/25 00:29:10;;;;;;;;;;;;;;;13.45;73.14;97060.41;30001;983;1880;-62
2021/09/25 00:29:41;;;;;;;;;;;;;;;13.46;72.93;97060.09;30001;986;1824;-63
2021/09/25 00:30:13;;;;;;;;;;;;;;;13.46;73.06;97051.94;30001;983;1875;-64
2021/09/25 00:30:43;;;;;;;;;;;;;;;13.47;73.23;97058.19;30001;983;1876;-64
2021/09/25 00:31:15;;;;;;;;;;;;;;;13.47;73.10;97058.19;30001;983;1880;-64
2021/09/25 00:31:46;;;;;;;;;;;;;;;13.48;73.23;97054.34;30001;983;1876;-63
2021/09/25 00:32:16;;;;;;;;;;;;;;;13.47;73.21;97052.75;30001;983;1858;-64
2021/09/25 00:32:49;;;;;;;;;;;;;;;13.48;73.14;97054.34;30001;983;1849;-64
2021/09/25 00:33:20;;;;;;;;;;;;;;;13.49;72.80;97045.06;30001;983;1880;-63
2021/09/25 00:33:51;;;;;;;;;;;;;;;13.49;72.41;97048.59;30001;983;1876;-63
2021/09/25 00:34:22;;;;;;;;;;;;;;;13.49;72.57;97047.78;30001;982;1880;-63
2021/09/25 00:34:52;;;;;;;;;;;;;;;13.51;72.55;97048.28;30001;986;1867;-63
2021/09/25 00:35:23;;;;;;;;;;;;;;;13.51;72.52;97049.09;30001;982;1880;-65
2021/09/25 00:35:54;;;;;;;;;;;;;;;13.52;72.75;97047.16;30001;982;1876;-63
2021/09/25 00:36:25;;;;;;;;;;;;;;;13.52;72.63;97052.59;30001;982;1880;-64
2021/09/25 00:36:56;;;;;;;;;;;;;;;13.52;72.86;97049.88;30001;983;1875;-64
2021/09/25 00:37:26;;;;;;;;;;;;;;;13.53;72.43;97051.47;30001;983;1858;-63
2021/09/25 00:37:57;;;;;;;;;;;;;;;13.52;72.47;97055.31;30001;983;1871;-63
2021/09/25 00:38:28;;;;;;;;;;;;;;;13.50;72.76;97052.13;30001;983;1880;-64
2021/09/25 00:38:59;;;;;;;;;;;;;;;13.49;72.49;97051.31;30001;983;1875;-63
2021/09/25 00:39:29;;;;;;;;;;;;;;;13.48;72.90;97049.72;30001;983;1880;-64
2021/09/25 00:40:00;;;;;;;;;;;;;;;13.48;72.85;97059.81;30001;983;1876;-66
2021/09/25 00:40:31;;;;;;;;;;;;;;;13.48;72.77;97048.91;30001;983;1880;-63
2021/09/25 00:41:02;;;;;;;;;;;;;;;13.46;72.95;97046.47;30001;983;1876;-64
2021/09/25 00:41:33;;;;;;;;;;;;;;;13.46;72.75;97053.84;30001;983;1880;-65
2021/09/25 00:42:04;;;;;;;;;;;;;;;13.45;73.06;97054.97;30001;982;1854;-64
2021/09/25 00:42:35;;;;;;;;;;;;;;;13.44;72.89;97056.06;30001;982;1876;-64
2021/09/25 00:43:06;;;;;;;;;;;;;;;13.44;72.88;97053.34;30001;982;1876;-63
2021/09/25 00:43:37;;;;;;;;;;;;;;;13.41;73.22;97050.13;30001;981;1880;-64
2021/09/25 00:44:08;;;;;;;;;;;;;;;13.40;73.19;97048.50;30001;983;1875;-65
2021/09/25 00:44:39;;;;;;;;;;;;;;;13.40;73.04;97045.78;30001;983;1880;-63
2021/09/25 00:45:11;;;;;;;;;;;;;;;13.39;72.92;97049.63;30001;983;1876;-64
2021/09/25 00:45:42;;;;;;;;;;;;;;;13.39;73.24;97052.34;30001;983;1858;-64
2021/09/25 00:46:13;;;;;;;;;;;;;;;13.38;72.94;97050.72;30001;983;1871;-64
2021/09/25 00:46:44;;;;;;;;;;;;;;;13.37;73.08;97049.13;30001;983;1880;-64
2021/09/25 00:47:15;;;;;;;;;;;;;;;13.37;73.05;97054.56;30001;983;1876;-65
2021/09/25 00:47:47;;;;;;;;;;;;;;;13.36;73.25;97052.97;30001;983;1880;-64
2021/09/25 00:48:18;;;;;;;;;;;;;;;13.35;73.13;97045.91;30001;983;1854;-65
2021/09/25 00:48:49;;;;;;;;;;;;;;;13.33;73.06;97056.28;30001;983;1876;-63
2021/09/25 00:49:20;;;;;;;;;;;;;;;13.33;73.10;97061.75;30001;982;1876;-63
2021/09/25 00:49:52;;;;;;;;;;;;;;;13.34;73.26;97063.34;30001;982;1880;-62
2021/09/25 00:50:25;;;;;;;;;;;;;;;13.34;73.01;97054.38;30001;982;1876;-64
2021/09/25 00:50:56;;;;;;;;;;;;;;;13.34;73.00;97066.09;30001;982;1880;-65
2021/09/25 00:51:27;;;;;;;;;;;;;;;13.34;73.31;97066.09;30001;986;1876;-64
2021/09/25 00:51:57;;;;;;;;;;;;;;;13.34;72.99;97052.47;30001;983;1880;-66
2021/09/25 00:52:28;;;;;;;;;;;;;;;13.37;73.13;97061.94;30001;983;1853;-64
2021/09/25 00:52:59;;;;;;;;;;;;;;;13.34;72.99;97066.09;30001;983;1875;-63
2021/09/25 00:53:30;;;;;;;;;;;;;;;13.34;73.04;97055.19;30001;983;1876;-61
2021/09/25 00:54:01;;;;;;;;;;;;;;;13.32;73.19;97062.03;30001;983;1880;-64
2021/09/25 00:54:32;;;;;;;;;;;;;;;13.30;73.19;97062.34;30001;983;1875;-66
2021/09/25 00:55:04;;;;;;;;;;;;;;;13.29;73.30;97062.66;30001;983;1880;-64
2021/09/25 00:55:35;;;;;;;;;;;;;;;13.27;73.41;97062.97;30001;983;1876;-63
2021/09/25 00:56:07;;;;;;;;;;;;;;;13.25;73.24;97062.47;30001;983;1880;-64
2021/09/25 00:56:40;;;;;;;;;;;;;;;13.24;73.35;97060.84;30001;983;1876;-65
2021/09/25 00:57:10;;;;;;;;;;;;;;;13.23;73.64;97059.22;30001;982;1858;-64
2021/09/25 00:57:41;;;;;;;;;;;;;;;13.21;73.61;97056.00;30001;982;1872;-64
2021/09/25 00:58:12;;;;;;;;;;;;;;;13.20;73.66;97059.84;30001;982;1880;-65
2021/09/25 00:58:43;;;;;;;;;;;;;;;13.18;73.95;97059.34;30001;982;1876;-64
2021/09/25 00:59:15;;;;;;;;;;;;;;;13.17;73.69;97060.44;30001;983;1858;-64
2021/09/25 00:59:46;;;;;;;;;;;;;;;13.16;73.68;97064.31;30001;983;1871;-64
2021/09/25 01:00:17;;;;;;;;;;;;;;;13.16;73.93;97053.41;30001;983;1880;-64
2021/09/25 01:00:48;;;;;;;;;;;;;;;13.15;73.78;97057.22;30001;983;1876;-65
2021/09/25 01:01:19;;;;;;;;;;;;;;;13.15;73.95;97068.13;30001;983;1880;-65
2021/09/25 01:01:51;;;;;;;;;;;;;;;13.12;74.12;97059.75;30001;983;1876;-66
2021/09/25 01:02:22;;;;;;;;;;;;;;;13.10;74.39;97057.31;30001;983;1791;-63
2021/09/25 01:02:52;;;;;;;;;;;;;;;13.09;74.46;97059.25;30001;983;1876;-65
2021/09/25 01:03:23;;;;;;;;;;;;;;;13.07;74.64;97060.66;30001;983;1880;-63
2021/09/25 01:03:54;;;;;;;;;;;;;;;13.06;74.70;97064.50;30001;982;1854;-59
2021/09/25 01:04:25;;;;;;;;;;;;;;;13.05;74.45;97060.97;30001;982;1832;-64
2021/09/25 01:04:56;;;;;;;;;;;;;;;13.06;74.80;97059.03;30001;986;1876;-63
2021/09/25 01:05:27;;;;;;;;;;;;;;;13.05;74.75;97054.69;30001;982;1880;-66
2021/09/25 01:05:58;;;;;;;;;;;;;;;13.05;74.81;97060.16;30001;982;1854;-64
2021/09/25 01:06:29;;;;;;;;;;;;;;;13.04;75.02;97055.81;30001;982;1876;-63
2021/09/25 01:07:00;;;;;;;;;;;;;;;13.05;74.70;97062.88;30001;983;1875;-63
2021/09/25 01:07:30;;;;;;;;;;;;;;;13.03;74.80;97056.91;30001;983;1880;-64
2021/09/25 01:08:01;;;;;;;;;;;;;;;13.02;75.23;97058.03;30001;983;1876;-63
2021/09/25 01:08:32;;;;;;;;;;;;;;;13.01;75.29;97045.53;30001;983;1880;-65
2021/09/25 01:09:04;;;;;;;;;;;;;;;13.02;75.04;97058.03;30001;983;1854;-64
2021/09/25 01:09:35;;;;;;;;;;;;;;;13.01;75.02;97050.97;30001;983;1875;-65
2021/09/25 01:10:06;;;;;;;;;;;;;;;12.98;75.46;97057.03;30001;983;1876;-64
2021/09/25 01:10:37;;;;;;;;;;;;;;;12.98;75.22;97062.47;30001;983;1880;-64
2021/09/25 01:11:08;;;;;;;;;;;;;;;12.98;75.61;97059.75;30001;982;1854;-65
2021/09/25 01:11:39;;;;;;;;;;;;;;;12.96;75.79;97059.25;30001;982;1875;-65
2021/09/25 01:12:10;;;;;;;;;;;;;;;12.95;75.50;97063.06;30001;982;1876;-65
2021/09/25 01:12:41;;;;;;;;;;;;;;;12.93;75.86;97059.84;30001;982;1880;-63
2021/09/25 01:13:12;;;;;;;;;;;;;;;12.92;75.67;97060.97;30001;983;1876;-65
2021/09/25 01:13:42;;;;;;;;;;;;;;;12.91;75.97;97060.16;30001;982;1880;-64
2021/09/25 01:14:13;;;;;;;;;;;;;;;12.90;75.93;97063.19;30001;982;1876;-64
2021/09/25 01:14:44;;;;;;;;;;;;;;;12.88;76.11;97054.50;30001;983;1880;-62
2021/09/25 01:15:15;;;;;;;;;;;;;;;12.87;76.11;97055.59;30001;983;1876;-64
2021/09/25 01:15:47;;;;;;;;;;;;;;;12.86;76.21;97056.72;30001;983;1858;-63
2021/09/25 01:16:18;;;;;;;;;;;;;;;12.86;76.00;97059.44;30001;983;1871;-62
2021/09/25 01:16:49;;;;;;;;;;;;;;;12.85;75.88;97064.06;30001;975;1866;-63
2021/09/25 01:17:21;;;;;;;;;;;;;;;12.85;76.21;97055.09;30001;983;1871;-64
2021/09/25 01:17:52;;;;;;;;;;;;;;;12.83;76.12;97055.41;30001;983;1880;-64
2021/09/25 01:18:22;;;;;;;;;;;;;;;12.82;75.90;97058.47;30001;983;1876;-65
2021/09/25 01:18:53;;;;;;;;;;;;;;;12.82;76.08;97058.47;30001;982;1880;-63
2021/09/25 01:19:24;;;;;;;;;;;;;;;12.81;75.97;97060.38;30001;982;1876;-64
2021/09/25 01:19:55;;;;;;;;;;;;;;;12.79;76.00;97054.44;30001;982;1880;-62
2021/09/25 01:20:26;;;;;;;;;;;;;;;12.78;75.85;97060.16;30001;982;1876;-64
2021/09/25 01:21:07;;;;;;;;;;;;;;;12.75;76.12;97054.22;30001;982;1880;-63
2021/09/25 01:21:38;;;;;;;;;;;;;;;12.75;76.14;97064.31;30001;982;1876;-64
2021/09/25 01:22:09;;;;;;;;;;;;;;;12.72;75.85;97060.28;30001;983;1858;-62
2021/09/25 01:22:40;;;;;;;;;;;;;;;12.72;76.27;97054.81;30001;983;1871;-63
2021/09/25 01:23:11;;;;;;;;;;;;;;;12.71;76.17;97055.12;30001;983;1858;-65
2021/09/25 01:23:42;;;;;;;;;;;;;;;12.70;76.06;97051.59;30001;983;1871;-63
2021/09/25 01:24:13;;;;;;;;;;;;;;;12.69;76.06;97055.41;30001;983;1880;-65
2021/09/25 01:24:44;;;;;;;;;;;;;;;12.69;75.87;97054.62;30001;983;1876;-63
2021/09/25 01:25:14;;;;;;;;;;;;;;;12.68;76.06;97048.38;30001;983;1858;-63
2021/09/25 01:25:45;;;;;;;;;;;;;;;12.67;75.81;97052.19;30001;983;1871;-65
2021/09/25 01:26:16;;;;;;;;;;;;;;;12.67;76.06;97049.47;30001;982;1880;-64
2021/09/25 01:26:50;;;;;;;;;;;;;;;12.66;76.32;97044.31;30001;982;1876;-63
2021/09/25 01:27:21;;;;;;;;;;;;;;;12.66;76.18;97047.06;30001;982;1880;-64
2021/09/25 01:27:52;;;;;;;;;;;;;;;12.65;76.07;97046.25;30001;982;1854;-62
2021/09/25 01:28:23;;;;;;;;;;;;;;;12.65;76.21;97048.97;30001;982;1845;-64
2021/09/25 01:28:54;;;;;;;;;;;;;;;12.64;75.99;97047.34;30001;982;1876;-65
2021/09/25 01:29:25;;;;;;;;;;;;;;;12.63;76.21;97047.66;30001;983;1880;-64
2021/09/25 01:29:56;;;;;;;;;;;;;;;12.62;76.24;97044.13;30001;983;1875;-64
2021/09/25 01:30:27;;;;;;;;;;;;;;;12.61;76.12;97049.88;30001;983;1880;-64
2021/09/25 01:30:58;;;;;;;;;;;;;;;12.60;76.22;97051.78;30001;983;1876;-65
2021/09/25 01:31:29;;;;;;;;;;;;;;;12.59;76.26;97050.16;30001;983;1880;-64
2021/09/25 01:32:01;;;;;;;;;;;;;;;12.59;76.43;97050.16;30001;983;1854;-63
2021/09/25 01:32:32;;;;;;;;;;;;;;;12.59;76.22;97044.72;30001;983;1876;-65
2021/09/25 01:33:03;;;;;;;;;;;;;;;12.58;76.38;97043.09;30001;983;1854;-63
2021/09/25 01:33:38;;;;;;;;;;;;;;;12.57;76.03;97044.22;30001;983;1876;-64
2021/09/25 01:34:09;;;;;;;;;;;;;;;12.58;76.29;97047.75;30001;982;1876;-65
2021/09/25 01:34:40;;;;;;;;;;;;;;;12.56;76.56;97045.31;30001;982;1881;-63
2021/09/25 01:35:11;;;;;;;;;;;;;;;12.56;76.38;97045.31;30001;982;1876;-63
2021/09/25 01:35:42;;;;;;;;;;;;;;;12.55;76.25;97043.72;30001;982;1880;-63
2021/09/25 01:36:14;;;;;;;;;;;;;;;12.55;76.51;97038.28;30001;982;1854;-65
2021/09/25 01:36:45;;;;;;;;;;;;;;;12.57;76.41;97044.22;30001;983;1875;-64
2021/09/25 01:37:15;;;;;;;;;;;;;;;12.57;76.11;97046.94;30001;983;1875;-62
2021/09/25 01:37:47;;;;;;;;;;;;;;;12.57;76.39;97044.22;30001;983;1880;-60
2021/09/25 01:38:18;;;;;;;;;;;;;;;12.58;75.98;97043.09;30001;983;1875;-64
2021/09/25 01:38:49;;;;;;;;;;;;;;;12.58;76.04;97037.66;30001;983;1880;-63
2021/09/25 01:39:20;;;;;;;;;;;;;;;12.59;76.19;97044.72;30001;983;1876;-63
2021/09/25 01:39:51;;;;;;;;;;;;;;;12.59;76.14;97044.72;30001;983;1880;-64
2021/09/25 01:40:22;;;;;;;;;;;;;;;12.61;76.35;97047.94;30001;983;1876;-64
2021/09/25 01:40:52;;;;;;;;;;;;;;;12.61;76.18;97042.50;30001;983;1880;-63
2021/09/25 01:41:23;;;;;;;;;;;;;;;12.61;76.10;97047.94;30001;982;1824;-63
2021/09/25 01:41:54;;;;;;;;;;;;;;;12.62;76.13;97049.56;30001;982;1854;-63
2021/09/25 01:42:25;;;;;;;;;;;;;;;12.63;76.27;97043.00;30001;982;1854;-64
2021/09/25 01:42:56;;;;;;;;;;;;;;;12.63;76.05;97045.75;30001;982;1876;-64
2021/09/25 01:43:29;;;;;;;;;;;;;;;12.65;75.79;97043.53;30001;982;1876;-63
2021/09/25 01:44:00;;;;;;;;;;;;;;;12.67;75.95;97052.19;30001;983;1880;-62
2021/09/25 01:44:31;;;;;;;;;;;;;;;12.67;76.04;97044.03;30001;983;1875;-62
2021/09/25 01:45:03;;;;;;;;;;;;;;;12.68;75.64;97042.13;30001;983;1880;-60
2021/09/25 01:45:34;;;;;;;;;;;;;;;12.69;75.96;97043.72;30001;983;1875;-64
2021/09/25 01:46:05;;;;;;;;;;;;;;;12.69;75.89;97049.97;30001;983;1880;-63
2021/09/25 01:46:35;;;;;;;;;;;;;;;12.71;75.87;97045.03;30001;983;1876;-63
2021/09/25 01:47:06;;;;;;;;;;;;;;;12.72;75.84;97043.94;30001;983;1858;-62
2021/09/25 01:47:39;;;;;;;;;;;;;;;12.74;75.77;97047.16;30001;983;1872;-63
2021/09/25 01:48:11;;;;;;;;;;;;;;;12.75;75.70;97048.78;30001;982;1880;-65
2021/09/25 01:48:42;;;;;;;;;;;;;;;12.78;75.57;97046.56;30001;982;1854;-63
2021/09/25 01:49:12;;;;;;;;;;;;;;;12.80;75.19;97060.69;30001;982;1854;-63
2021/09/25 01:49:43;;;;;;;;;;;;;;;12.81;75.22;97052.22;30001;982;1876;-63
2021/09/25 01:50:15;;;;;;;;;;;;;;;12.82;75.45;97048.34;30001;982;1880;-64
2021/09/25 01:50:46;;;;;;;;;;;;;;;12.84;74.97;97050.75;30001;982;1876;-63
2021/09/25 01:51:17;;;;;;;;;;;;;;;12.86;75.09;97064.88;30001;983;1880;-63
2021/09/25 01:51:48;;;;;;;;;;;;;;;12.88;74.94;97051.78;30001;983;1875;-65
2021/09/25 01:52:18;;;;;;;;;;;;;;;12.91;74.87;97056.63;30001;983;1880;-63
2021/09/25 01:52:49;;;;;;;;;;;;;;;12.91;74.77;97053.91;30001;983;1875;-64
2021/09/25 01:53:22;;;;;;;;;;;;;;;12.93;74.27;97059.84;30001;983;1858;-63
2021/09/25 01:53:53;;;;;;;;;;;;;;;12.95;74.12;97060.34;30001;983;1871;-64
2021/09/25 01:54:24;;;;;;;;;;;;;;;12.95;74.08;97052.19;30001;983;1880;-62
2021/09/25 01:54:55;;;;;;;;;;;;;;;12.97;74.23;97058.13;30001;983;1876;-63
2021/09/25 01:55:26;;;;;;;;;;;;;;;12.97;74.12;97056.22;30001;982;1880;-64
2021/09/25 01:55:57;;;;;;;;;;;;;;;12.98;74.16;97059.75;30001;982;1876;-64
2021/09/25 01:56:27;;;;;;;;;;;;;;;13.00;74.17;97060.25;30001;982;1880;-65
2021/09/25 01:56:58;;;;;;;;;;;;;;;13.01;73.77;97056.41;30001;982;1876;-64
2021/09/25 01:57:29;;;;;;;;;;;;;;;13.02;74.13;97058.03;30001;982;1880;-64
2021/09/25 01:58:00;;;;;;;;;;;;;;;13.03;73.79;97065.09;30001;982;1876;-65
2021/09/25 01:58:31;;;;;;;;;;;;;;;13.03;73.69;97062.38;30001;982;1859;-63
2021/09/25 01:59:02;;;;;;;;;;;;;;;13.03;74.13;97059.66;30001;983;1871;-63
2021/09/25 01:59:33;;;;;;;;;;;;;;;13.03;73.83;97054.19;30001;983;1880;-63
2021/09/25 02:00:05;;;;;;;;;;;;;;;13.05;73.79;97060.97;30001;983;1875;-62
2021/09/25 02:00:36;;;;;;;;;;;;;;;13.06;73.76;97053.59;30001;983;1858;-66
2021/09/25 02:01:07;;;;;;;;;;;;;;;13.06;73.57;97059.03;30001;983;1871;-60
2021/09/25 02:01:38;;;;;;;;;;;;;;;13.07;73.74;97055.22;30001;983;1880;-64
2021/09/25 02:02:11;;;;;;;;;;;;;;;13.05;73.53;97062.88;30001;983;1876;-60
2021/09/25 02:02:42;;;;;;;;;;;;;;;13.05;73.49;97066.41;30001;983;1880;-60
2021/09/25 02:03:13;;;;;;;;;;;;;;;13.05;73.69;97062.88;30001;982;1876;-63
2021/09/25 02:03:44;;;;;;;;;;;;;;;13.03;73.86;97060.47;30001;982;1858;-63
2021/09/25 02:04:14;;;;;;;;;;;;;;;13.04;73.77;97066.72;30001;982;1872;-64
2021/09/25 02:04:48;;;;;;;;;;;;;;;13.06;73.45;97065.28;30001;982;1880;-64
2021/09/25 02:05:21;;;;;;;;;;;;;;;13.08;73.40;97056.81;30001;982;1854;-64
2021/09/25 02:05:52;;;;;;;;;;;;;;;13.10;73.25;97060.03;30001;982;1876;-65
2021/09/25 02:06:23;;;;;;;;;;;;;;;13.11;73.01;97060.84;30001;983;1875;-64
2021/09/25 02:06:57;;;;;;;;;;;;;;;13.13;72.99;97058.63;30001;983;1880;-64
2021/09/25 02:07:27;;;;;;;;;;;;;;;13.13;72.82;97053.19;30001;983;1875;-64
2021/09/25 02:07:59;;;;;;;;;;;;;;;13.08;73.17;97052.19;30001;983;1880;-66
2021/09/25 02:08:31;;;;;;;;;;;;;;;13.09;73.15;97052.97;30001;983;1854;-64
2021/09/25 02:09:02;;;;;;;;;;;;;;;13.05;73.05;97057.44;30001;983;1875;-66
2021/09/25 02:09:32;;;;;;;;;;;;;;;13.05;73.09;97051.97;30001;983;1876;-63
2021/09/25 02:10:04;;;;;;;;;;;;;;;13.07;73.26;97066.09;30001;983;1880;-64
2021/09/25 02:10:35;;;;;;;;;;;;;;;13.04;73.36;97053.91;30001;982;1854;-65
2021/09/25 02:11:06;;;;;;;;;;;;;;;12.99;73.41;97054.00;30001;982;1876;-63
2021/09/25 02:11:37;;;;;;;;;;;;;;;12.99;73.64;97054.00;30001;982;1876;-65
2021/09/25 02:12:08;;;;;;;;;;;;;;;12.95;73.59;97057.63;30001;982;1880;-64
2021/09/25 02:12:39;;;;;;;;;;;;;;;12.93;73.68;97063.38;30001;982;1876;-65
2021/09/25 02:13:10;;;;;;;;;;;;;;;12.92;73.92;97063.69;30001;983;1880;-66
2021/09/25 02:13:41;;;;;;;;;;;;;;;12.89;73.95;97056.91;30001;983;1834;-65
2021/09/25 02:14:12;;;;;;;;;;;;;;;12.85;74.20;97060.56;30001;983;1880;-66
2021/09/25 02:14:43;;;;;;;;;;;;;;;12.84;74.30;97061.66;30001;983;1853;-63
2021/09/25 02:15:14;;;;;;;;;;;;;;;12.84;74.34;97061.66;30001;983;1875;-64
2021/09/25 02:15:45;;;;;;;;;;;;;;;12.82;74.18;97058.47;30001;983;1876;-63
2021/09/25 02:16:16;;;;;;;;;;;;;;;12.79;74.42;97057.16;30001;983;1880;-65
2021/09/25 02:16:46;;;;;;;;;;;;;;;12.77;74.23;97055.84;30001;983;1875;-65
2021/09/25 02:17:20;;;;;;;;;;;;;;;12.74;74.65;97057.25;30001;983;1880;-63
2021/09/25 02:17:51;;;;;;;;;;;;;;;12.70;74.60;97059.75;30001;983;1876;-64
2021/09/25 02:18:22;;;;;;;;;;;;;;;12.70;74.54;97062.47;30001;982;1858;-64
2021/09/25 02:18:53;;;;;;;;;;;;;;;12.71;74.67;97061.38;30001;982;1871;-65
2021/09/25 02:19:24;;;;;;;;;;;;;;;12.70;74.82;97062.47;30001;982;1880;-65
2021/09/25 02:19:55;;;;;;;;;;;;;;;12.67;74.71;97063.09;30001;982;1854;-64
2021/09/25 02:20:26;;;;;;;;;;;;;;;12.64;74.86;97063.69;30001;982;1876;-64
2021/09/25 02:20:57;;;;;;;;;;;;;;;12.60;75.23;97068.13;30001;983;1875;-64
2021/09/25 02:21:28;;;;;;;;;;;;;;;12.59;75.19;97062.97;30001;983;1880;-64
2021/09/25 02:21:59;;;;;;;;;;;;;;;12.57;75.11;97066.00;30001;983;1875;-66
2021/09/25 02:22:30;;;;;;;;;;;;;;;12.56;75.33;97069.00;30001;963;1812;-64
2021/09/25 02:23:01;;;;;;;;;;;;;;;12.56;75.36;97061.66;30001;983;1871;-65
2021/09/25 02:23:32;;;;;;;;;;;;;;;12.54;75.50;97069.31;30001;983;1858;-66
2021/09/25 02:24:03;;;;;;;;;;;;;;;12.56;75.72;97066.28;30001;983;1871;-64
2021/09/25 02:24:34;;;;;;;;;;;;;;;12.55;75.58;97059.22;30001;983;1880;-63
2021/09/25 02:25:07;;;;;;;;;;;;;;;12.54;75.33;97063.06;30001;983;1876;-65
2021/09/25 02:25:38;;;;;;;;;;;;;;;12.52;75.54;97065.28;30001;982;1880;-63
2021/09/25 02:26:09;;;;;;;;;;;;;;;12.52;75.58;97068.81;30001;982;1876;-64
2021/09/25 02:26:41;;;;;;;;;;;;;;;12.51;75.58;97063.66;30001;982;1880;-65
2021/09/25 02:27:12;;;;;;;;;;;;;;;12.52;75.73;97066.09;30001;982;1876;-65
2021/09/25 02:27:43;;;;;;;;;;;;;;;12.52;75.75;97060.63;30001;982;1880;-63
2021/09/25 02:28:13;;;;;;;;;;;;;;;12.51;75.79;97067.19;30001;983;1875;-63
2021/09/25 02:28:44;;;;;;;;;;;;;;;12.52;75.45;97063.38;30001;983;1858;-63
2021/09/25 02:29:15;;;;;;;;;;;;;;;12.52;75.58;97071.53;30001;983;1871;-63
2021/09/25 02:29:46;;;;;;;;;;;;;;;12.52;75.93;97066.09;30001;983;1858;-63
2021/09/25 02:30:17;;;;;;;;;;;;;;;12.51;75.75;97067.19;30001;983;1871;-63
2021/09/25 02:30:48;;;;;;;;;;;;;;;12.51;75.71;97064.47;30001;983;1880;-63
2021/09/25 02:31:20;;;;;;;;;;;;;;;12.52;75.55;97068.81;30001;983;1876;-63
2021/09/25 02:31:51;;;;;;;;;;;;;;;12.51;75.80;97058.22;30001;983;1880;-64
2021/09/25 02:32:22;;;;;;;;;;;;;;;12.52;75.69;97060.63;30001;982;1876;-64
2021/09/25 02:32:54;;;;;;;;;;;;;;;12.52;75.72;97066.09;30001;982;1880;-62
2021/09/25 02:33:25;;;;;;;;;;;;;;;12.53;75.75;97061.44;30001;982;1876;-64
2021/09/25 02:33:56;;;;;;;;;;;;;;;12.53;75.65;97066.91;30001;982;1858;-63
2021/09/25 02:34:27;;;;;;;;;;;;;;;12.52;75.98;97065.28;30001;982;1872;-64
2021/09/25 02:34:58;;;;;;;;;;;;;;;12.53;75.54;97062.25;30001;982;1859;-63
2021/09/25 02:35:29;;;;;;;;;;;;;;;12.53;75.77;97064.97;30001;982;1872;-64
2021/09/25 02:36:00;;;;;;;;;;;;;;;12.55;75.95;97065.50;30001;983;1880;-65
2021/09/25 02:36:31;;;;;;;;;;;;;;;12.56;75.79;97064.38;30001;983;1875;-65
2021/09/25 02:37:03;;;;;;;;;;;;;;;12.57;75.53;97066.00;30001;983;1858;-63
2021/09/25 02:37:33;;;;;;;;;;;;;;;12.57;75.81;97067.91;30001;983;1871;-63
2021/09/25 02:38:04;;;;;;;;;;;;;;;12.57;75.77;97071.44;30001;983;1880;-64
2021/09/25 02:38:35;;;;;;;;;;;;;;;12.57;75.82;97066.00;30001;985;1876;-64
2021/09/25 02:39:06;;;;;;;;;;;;;;;12.57;75.91;97066.00;30001;983;1880;-65
2021/09/25 02:39:36;;;;;;;;;;;;;;;12.58;75.69;97064.06;30001;983;1876;-64
2021/09/25 02:40:08;;;;;;;;;;;;;;;12.57;75.73;97066.00;30001;965;1897;-65
2021/09/25 02:40:39;;;;;;;;;;;;;;;12.57;75.53;97060.53;30001;982;1876;-62
2021/09/25 02:41:10;;;;;;;;;;;;;;;12.56;75.38;97058.94;30001;982;1880;-63
2021/09/25 02:41:41;;;;;;;;;;;;;;;12.57;75.71;97071.44;30001;982;1876;-64
2021/09/25 02:42:12;;;;;;;;;;;;;;;12.56;75.70;97067.09;30001;982;1859;-63
2021/09/25 02:42:44;;;;;;;;;;;;;;;12.56;75.59;97061.66;30001;982;1871;-62
2021/09/25 02:43:14;;;;;;;;;;;;;;;12.57;75.56;97065.19;30001;983;1880;-63
2021/09/25 02:43:45;;;;;;;;;;;;;;;12.56;75.90;97058.94;30001;983;1875;-63
2021/09/25 02:44:16;;;;;;;;;;;;;;;12.57;75.89;97057.81;30001;983;1858;-62
2021/09/25 02:44:47;;;;;;;;;;;;;;;12.57;75.70;97062.47;30001;983;1871;-63
2021/09/25 02:45:18;;;;;;;;;;;;;;;12.57;75.90;97059.75;30001;983;1880;-63
2021/09/25 02:45:49;;;;;;;;;;;;;;;12.56;75.59;97056.22;30001;983;1876;-64
2021/09/25 02:46:20;;;;;;;;;;;;;;;12.55;75.84;97054.59;30001;983;1880;-63